Time;durP1;ratioP1;P1;durP2;ratioP2;P2;SDS_P1;SDS_P2;PMS_P1;PMS_P2;Temp;Humidity;BMP_temperature;BMP_pressure;BME280_temperature;BME280_humidity;BME280_pressure;Samples;Min_cycle;Max_cycle;Signal;HPM_P1;HPM_P2
2021/03/25 00:02:03;;;;;;;12.43;8.45;;;;;;;;;;5035337;28;20475;-86
2021/03/25 00:04:28;;;;;;;8.27;7.20;;;;;;;;;;5035590;28;20394;-86
2021/03/25 00:06:56;;;;;;;8.60;7.33;;;;;;;;;;5052932;28;20499;-86
2021/03/25 00:09:22;;;;;;;8.20;6.70;;;;;;;;;;5035080;28;20402;-86
2021/03/25 00:11:48;;;;;;;7.63;6.78;;;;;;;;;;5057711;28;20443;-86
2021/03/25 00:14:14;;;;;;;8.23;6.50;;;;;;;;;;5055050;28;20468;-86
2021/03/25 00:16:40;;;;;;;8.80;6.35;;;;;;;;;;5052881;28;20394;-87
2021/03/25 00:19:06;;;;;;;7.57;6.55;;;;;;;;;;5018371;28;20408;-86
2021/03/25 00:21:33;;;;;;;8.65;6.53;;;;;;;;;;5015194;28;20482;-86
2021/03/25 00:23:59;;;;;;;6.63;5.93;;;;;;;;;;5035234;28;20870;-86
2021/03/25 00:26:24;;;;;;;7.07;5.55;;;;;;;;;;5060785;28;20495;-87
2021/03/25 00:28:50;;;;;;;7.03;5.22;;;;;;;;;;5038352;28;20413;-86
2021/03/25 00:31:16;;;;;;;7.70;5.30;;;;;;;;;;5017834;28;20393;-87
2021/03/25 00:33:42;;;;;;;7.10;5.15;;;;;;;;;;5052149;28;20431;-87
2021/03/25 00:36:08;;;;;;;7.47;5.43;;;;;;;;;;5014207;28;20464;-86
2021/03/25 00:38:34;;;;;;;7.53;5.55;;;;;;;;;;5031312;28;20383;-85
2021/03/25 00:41:03;;;;;;;6.97;5.10;;;;;;;;;;5046875;28;20420;-86
2021/03/25 00:43:29;;;;;;;6.70;5.05;;;;;;;;;;5037333;28;20399;-86
2021/03/25 00:45:55;;;;;;;5.47;4.90;;;;;;;;;;5038010;28;20400;-86
2021/03/25 00:48:21;;;;;;;5.72;5.13;;;;;;;;;;5054129;28;20874;-87
2021/03/25 00:50:51;;;;;;;8.23;4.97;;;;;;;;;;5021777;28;20399;-86
2021/03/25 00:53:18;;;;;;;7.03;5.38;;;;;;;;;;5040797;28;20392;-87
2021/03/25 00:55:44;;;;;;;6.55;4.72;;;;;;;;;;5021642;28;20414;-86
2021/03/25 00:58:10;;;;;;;6.65;5.05;;;;;;;;;;5039419;28;20472;-86
2021/03/25 01:00:37;;;;;;;6.43;4.70;;;;;;;;;;5054102;28;20396;-86
2021/03/25 01:03:06;;;;;;;5.35;4.85;;;;;;;;;;5036820;28;20434;-86
2021/03/25 01:05:32;;;;;;;5.97;4.95;;;;;;;;;;5054226;28;20441;-86
2021/03/25 01:07:58;;;;;;;6.40;5.00;;;;;;;;;;5050144;28;20401;-86
2021/03/25 01:10:30;;;;;;;5.60;4.87;;;;;;;;;;5035437;28;20420;-87
2021/03/25 01:12:56;;;;;;;6.10;4.60;;;;;;;;;;5033694;28;20413;-87
2021/03/25 01:15:22;;;;;;;5.47;4.85;;;;;;;;;;5039615;28;20430;-86
2021/03/25 01:17:49;;;;;;;6.30;4.57;;;;;;;;;;5053846;28;20380;-87
2021/03/25 01:20:16;;;;;;;6.00;5.15;;;;;;;;;;5045753;28;20413;-87
2021/03/25 01:22:42;;;;;;;7.95;5.30;;;;;;;;;;5033369;28;20381;-86
2021/03/25 01:25:08;;;;;;;9.80;5.55;;;;;;;;;;5017323;28;21228;-86
2021/03/25 01:27:34;;;;;;;6.57;5.03;;;;;;;;;;5051820;28;20864;-86
2021/03/25 01:30:01;;;;;;;6.10;5.30;;;;;;;;;;5051456;28;20395;-86
2021/03/25 01:32:27;;;;;;;8.77;5.50;;;;;;;;;;5051486;28;20868;-87
2021/03/25 01:34:53;;;;;;;6.78;4.70;;;;;;;;;;5050806;28;20421;-86
2021/03/25 01:37:19;;;;;;;6.07;4.60;;;;;;;;;;5031656;28;20406;-86
2021/03/25 01:39:50;;;;;;;6.63;4.55;;;;;;;;;;5033710;28;20480;-86
2021/03/25 01:42:26;;;;;;;5.50;5.00;;;;;;;;;;5033912;28;20389;-86
2021/03/25 01:44:52;;;;;;;5.28;4.50;;;;;;;;;;4997417;28;20499;-86
2021/03/25 01:47:18;;;;;;;6.50;4.95;;;;;;;;;;5022521;28;20831;-86
2021/03/25 01:49:44;;;;;;;6.45;4.88;;;;;;;;;;5049847;28;20405;-86
2021/03/25 01:52:27;;;;;;;5.20;4.70;;;;;;;;;;5017287;28;20385;-85
2021/03/25 01:55:12;;;;;;;5.82;4.72;;;;;;;;;;5033106;28;20413;-86
2021/03/25 01:57:38;;;;;;;6.28;4.43;;;;;;;;;;5033442;28;20393;-86
2021/03/25 02:00:07;;;;;;;7.85;4.97;;;;;;;;;;5033430;28;20477;-86
2021/03/25 02:02:33;;;;;;;5.50;5.00;;;;;;;;;;5032657;28;20456;-86
2021/03/25 02:05:14;;;;;;;6.07;5.30;;;;;;;;;;5034280;28;20436;-86
2021/03/25 02:07:49;;;;;;;5.75;5.25;;;;;;;;;;5055757;28;20404;-86
2021/03/25 02:10:23;;;;;;;6.32;5.28;;;;;;;;;;5048781;28;20883;-86
2021/03/25 02:13:08;;;;;;;7.28;5.90;;;;;;;;;;5032951;28;20959;-86
2021/03/25 02:15:43;;;;;;;6.70;5.97;;;;;;;;;;5054390;28;20448;-86
2021/03/25 02:18:14;;;;;;;5.32;4.78;;;;;;;;;;5009949;28;20542;-87
2021/03/25 02:20:52;;;;;;;6.00;4.97;;;;;;;;;;5055441;28;20400;-86
2021/03/25 02:23:36;;;;;;;5.57;4.32;;;;;;;;;;5039816;28;20398;-86
2021/03/25 02:26:03;;;;;;;5.32;4.18;;;;;;;;;;5055042;28;20401;-86
2021/03/25 02:28:48;;;;;;;7.90;5.00;;;;;;;;;;5042718;28;20759;-86
2021/03/25 02:31:16;;;;;;;7.82;5.10;;;;;;;;;;5053968;28;20408;-86
2021/03/25 02:33:42;;;;;;;5.53;4.25;;;;;;;;;;5053252;28;20433;-86
2021/03/25 02:36:10;;;;;;;5.85;4.50;;;;;;;;;;5020507;28;20435;-86
2021/03/25 02:38:43;;;;;;;5.10;4.60;;;;;;;;;;5037128;28;20475;-86
2021/03/25 02:41:19;;;;;;;5.20;4.70;;;;;;;;;;5047634;28;20421;-86
2021/03/25 02:43:45;;;;;;;4.95;4.13;;;;;;;;;;5050090;28;20407;-85
2021/03/25 02:46:14;;;;;;;5.33;4.23;;;;;;;;;;5036793;28;20446;-86
2021/03/25 02:48:40;;;;;;;4.93;4.28;;;;;;;;;;5035534;28;20413;-86
2021/03/25 02:51:21;;;;;;;5.10;4.15;;;;;;;;;;5036247;28;20544;-86
2021/03/25 02:53:47;;;;;;;5.43;4.60;;;;;;;;;;5038994;28;20728;-86
2021/03/25 02:56:13;;;;;;;3.95;3.65;;;;;;;;;;5052717;28;20399;-86
2021/03/25 02:58:39;;;;;;;7.63;4.82;;;;;;;;;;5074155;28;20490;-86
2021/03/25 03:01:06;;;;;;;4.77;4.37;;;;;;;;;;5056480;28;20411;-86
2021/03/25 03:03:36;;;;;;;4.85;4.35;;;;;;;;;;5056379;28;20391;-86
2021/03/25 03:06:02;;;;;;;4.50;4.10;;;;;;;;;;5053140;28;20428;-86
2021/03/25 03:08:36;;;;;;;6.22;4.90;;;;;;;;;;5037193;28;20409;-86
2021/03/25 03:11:08;;;;;;;6.03;4.30;;;;;;;;;;5033619;28;20781;-86
2021/03/25 03:13:35;;;;;;;6.75;5.00;;;;;;;;;;5035892;28;20420;-86
2021/03/25 03:16:03;;;;;;;6.25;5.63;;;;;;;;;;5036206;28;20393;-86
2021/03/25 03:18:36;;;;;;;8.07;5.97;;;;;;;;;;5019948;28;20427;-86
2021/03/25 03:21:09;;;;;;;6.40;5.77;;;;;;;;;;5019520;28;20787;-86
2021/03/25 03:23:35;;;;;;;5.85;5.25;;;;;;;;;;5021670;28;20397;-87
2021/03/25 03:26:02;;;;;;;5.90;4.57;;;;;;;;;;5053724;28;20784;-86
2021/03/25 03:28:31;;;;;;;6.50;5.38;;;;;;;;;;5034419;28;20433;-86
2021/03/25 03:30:57;;;;;;;9.77;5.45;;;;;;;;;;5019367;28;20397;-86
2021/03/25 03:33:23;;;;;;;5.25;4.75;;;;;;;;;;5023734;28;20388;-87
2021/03/25 03:35:56;;;;;;;6.65;4.95;;;;;;;;;;5042812;28;20402;-86
2021/03/25 03:38:29;;;;;;;6.05;5.00;;;;;;;;;;5024269;28;20400;-86
2021/03/25 03:40:55;;;;;;;5.18;4.68;;;;;;;;;;5039206;28;20883;-86
2021/03/25 03:43:21;;;;;;;6.07;4.72;;;;;;;;;;5037941;28;20929;-86
2021/03/25 03:45:55;;;;;;;5.20;4.70;;;;;;;;;;5035528;28;20453;-86
2021/03/25 03:48:29;;;;;;;5.63;4.50;;;;;;;;;;5023144;28;20484;-86
2021/03/25 03:50:55;;;;;;;6.10;5.50;;;;;;;;;;5053395;28;20409;-86
2021/03/25 03:53:21;;;;;;;6.38;5.38;;;;;;;;;;5021739;28;20486;-86
2021/03/25 03:55:47;;;;;;;7.78;5.60;;;;;;;;;;5031380;28;20409;-86
2021/03/25 03:58:13;;;;;;;6.95;5.30;;;;;;;;;;5053035;28;20385;-86
2021/03/25 04:00:42;;;;;;;7.32;5.30;;;;;;;;;;5031834;28;20394;-86
2021/03/25 04:03:13;;;;;;;6.47;5.20;;;;;;;;;;5041979;28;20407;-87
2021/03/25 04:05:40;;;;;;;5.93;5.15;;;;;;;;;;5035225;28;20448;-86
2021/03/25 04:08:23;;;;;;;6.18;4.53;;;;;;;;;;5035241;28;20427;-86
2021/03/25 04:10:51;;;;;;;5.10;4.00;;;;;;;;;;5018740;28;20930;-86
2021/03/25 04:13:19;;;;;;;5.85;4.53;;;;;;;;;;5018228;28;20474;-86
2021/03/25 04:15:49;;;;;;;5.30;4.57;;;;;;;;;;5035158;28;20393;-86
2021/03/25 04:18:17;;;;;;;6.23;4.67;;;;;;;;;;5017559;28;20494;-86
2021/03/25 04:20:44;;;;;;;7.25;5.13;;;;;;;;;;5035021;28;20400;-86
2021/03/25 04:23:11;;;;;;;5.00;4.50;;;;;;;;;;5045016;28;20462;-86
2021/03/25 04:25:39;;;;;;;6.57;4.70;;;;;;;;;;5026617;28;20896;-86
2021/03/25 04:28:26;;;;;;;7.63;5.50;;;;;;;;;;5018053;28;20488;-86
2021/03/25 04:30:52;;;;;;;6.55;4.65;;;;;;;;;;5038189;28;20946;-86
2021/03/25 04:33:19;;;;;;;7.80;4.72;;;;;;;;;;5017004;28;20484;-86
2021/03/25 04:35:45;;;;;;;5.90;5.00;;;;;;;;;;5052455;28;20436;-86
2021/03/25 04:38:12;;;;;;;7.22;5.10;;;;;;;;;;5046494;28;20412;-86
2021/03/25 04:40:39;;;;;;;6.25;5.05;;;;;;;;;;5034679;28;20431;-86
2021/03/25 04:43:04;;;;;;;7.00;5.43;;;;;;;;;;5034540;28;20930;-86
2021/03/25 04:45:48;;;;;;;5.93;4.78;;;;;;;;;;5042916;28;20411;-86
2021/03/25 04:48:15;;;;;;;7.15;5.35;;;;;;;;;;5014468;28;20395;-86
2021/03/25 04:50:47;;;;;;;5.68;4.95;;;;;;;;;;5030786;28;20389;-86
2021/03/25 04:53:19;;;;;;;5.10;4.57;;;;;;;;;;5034350;28;20402;-86
2021/03/25 04:55:45;;;;;;;9.85;5.20;;;;;;;;;;5033742;28;20427;-86
2021/03/25 04:58:11;;;;;;;10.43;5.33;;;;;;;;;;5017830;28;20539;-86
2021/03/25 05:00:38;;;;;;;4.80;4.30;;;;;;;;;;5064480;28;20411;-86
2021/03/25 05:03:04;;;;;;;8.32;5.25;;;;;;;;;;5033705;28;20484;-86
2021/03/25 05:05:31;;;;;;;7.38;5.47;;;;;;;;;;5026716;28;20499;-86
2021/03/25 05:07:58;;;;;;;8.07;4.75;;;;;;;;;;5015146;28;20880;-86
2021/03/25 05:10:26;;;;;;;5.47;4.85;;;;;;;;;;5019149;28;20391;-86
2021/03/25 05:12:52;;;;;;;7.68;4.35;;;;;;;;;;5059709;28;20439;-86
2021/03/25 05:15:18;;;;;;;6.57;5.55;;;;;;;;;;5037296;28;20408;-86
2021/03/25 05:17:44;;;;;;;6.78;4.63;;;;;;;;;;5043708;28;20394;-86
2021/03/25 05:20:14;;;;;;;6.07;4.50;;;;;;;;;;5031866;28;20931;-86
2021/03/25 05:22:46;;;;;;;6.95;5.13;;;;;;;;;;5039843;28;20388;-86
2021/03/25 05:25:16;;;;;;;7.30;5.38;;;;;;;;;;5071624;28;20484;-86
2021/03/25 05:27:45;;;;;;;7.60;5.50;;;;;;;;;;5047030;28;20472;-85
2021/03/25 05:30:19;;;;;;;10.88;6.13;;;;;;;;;;5033145;28;20734;-85
2021/03/25 05:32:45;;;;;;;11.70;5.90;;;;;;;;;;5031552;28;20455;-87
2021/03/25 05:35:13;;;;;;;9.27;5.80;;;;;;;;;;5029751;28;20404;-86
2021/03/25 05:37:39;;;;;;;6.75;4.80;;;;;;;;;;5031227;28;20535;-86
2021/03/25 05:40:15;;;;;;;13.20;5.60;;;;;;;;;;5003854;28;20500;-86
2021/03/25 05:42:46;;;;;;;9.75;4.82;;;;;;;;;;5048655;28;20405;-86
2021/03/25 05:45:15;;;;;;;12.02;5.38;;;;;;;;;;5051695;28;20893;-86
2021/03/25 05:47:47;;;;;;;9.07;4.72;;;;;;;;;;5025848;28;22036;-86
2021/03/25 05:50:19;;;;;;;9.40;4.88;;;;;;;;;;5036372;28;20409;-86
2021/03/25 05:52:45;;;;;;;11.68;5.10;;;;;;;;;;5054483;28;20463;-86
2021/03/25 05:55:30;;;;;;;8.75;5.00;;;;;;;;;;5037573;28;20897;-86
2021/03/25 05:57:56;;;;;;;11.95;4.97;;;;;;;;;;5031083;28;20408;-86
2021/03/25 06:00:22;;;;;;;8.55;4.55;;;;;;;;;;5052140;28;20411;-86
2021/03/25 06:02:49;;;;;;;9.67;5.07;;;;;;;;;;5041281;28;20573;-86
2021/03/25 06:05:15;;;;;;;6.85;4.45;;;;;;;;;;5019604;28;20423;-87
2021/03/25 06:07:44;;;;;;;6.82;4.70;;;;;;;;;;5007449;28;20424;-87
2021/03/25 06:10:14;;;;;;;6.20;4.43;;;;;;;;;;5028970;28;20397;-87
2021/03/25 06:12:58;;;;;;;10.38;5.18;;;;;;;;;;5030162;28;20401;-87
2021/03/25 06:15:30;;;;;;;5.65;4.47;;;;;;;;;;5042510;28;20428;-87
2021/03/25 06:17:56;;;;;;;7.28;4.70;;;;;;;;;;5028985;28;20436;-88
2021/03/25 06:20:57;;;;;;;6.93;4.55;;;;;;;;;;5029454;28;20881;-86
2021/03/25 06:23:23;;;;;;;8.27;5.13;;;;;;;;;;4968496;28;20400;-86
2021/03/25 06:25:49;;;;;;;7.82;5.47;;;;;;;;;;5022464;28;20417;-87
2021/03/25 06:28:25;;;;;;;6.68;4.72;;;;;;;;;;5050692;28;20910;-88
2021/03/25 06:31:10;;;;;;;5.53;4.90;;;;;;;;;;5029262;28;20406;-89
2021/03/25 06:34:02;;;;;;;7.17;4.90;;;;;;;;;;5030731;28;20538;-86
2021/03/25 06:36:49;;;;;;;9.63;6.15;;;;;;;;;;4953331;28;20465;-91
2021/03/25 06:39:26;;;;;;;5.78;4.70;;;;;;;;;;5050975;28;20865;-87
2021/03/25 06:42:08;;;;;;;7.83;4.97;;;;;;;;;;5032328;28;20432;-88
2021/03/25 06:44:34;;;;;;;7.18;4.90;;;;;;;;;;5009069;28;20402;-88
2021/03/25 06:47:06;;;;;;;6.65;4.57;;;;;;;;;;5032264;28;20923;-87
2021/03/25 06:49:37;;;;;;;6.72;5.03;;;;;;;;;;5015918;28;20427;-87
2021/03/25 06:52:22;;;;;;;11.10;5.13;;;;;;;;;;5031883;28;20413;-88
2021/03/25 06:54:48;;;;;;;10.73;6.53;;;;;;;;;;5035952;28;20893;-88
2021/03/25 06:57:17;;;;;;;9.32;5.72;;;;;;;;;;5036213;28;20397;-89
2021/03/25 06:59:44;;;;;;;8.45;5.43;;;;;;;;;;5017775;28;20466;-88
2021/03/25 07:02:09;;;;;;;6.20;5.60;;;;;;;;;;5014490;28;20405;-88
2021/03/25 07:04:39;;;;;;;6.13;4.80;;;;;;;;;;5035347;28;20764;-87
2021/03/25 07:07:22;;;;;;;8.73;5.75;;;;;;;;;;5032484;28;20451;-87
2021/03/25 07:09:48;;;;;;;5.78;5.18;;;;;;;;;;5036450;28;20401;-87
2021/03/25 07:12:19;;;;;;;9.60;6.78;;;;;;;;;;5036399;28;20500;-88
2021/03/25 07:14:45;;;;;;;6.90;6.10;;;;;;;;;;5023560;28;20423;-87
2021/03/25 07:17:13;;;;;;;9.77;6.30;;;;;;;;;;5035769;28;20450;-86
2021/03/25 07:19:40;;;;;;;7.80;6.60;;;;;;;;;;5024928;28;20409;-86
2021/03/25 07:22:19;;;;;;;8.52;6.38;;;;;;;;;;5035644;28;20556;-86
2021/03/25 07:24:45;;;;;;;9.15;6.47;;;;;;;;;;5052882;28;20916;-87
2021/03/25 07:27:11;;;;;;;8.63;6.20;;;;;;;;;;5025790;28;20395;-86
2021/03/25 07:29:38;;;;;;;7.60;5.85;;;;;;;;;;5070686;28;20817;-87
2021/03/25 07:32:10;;;;;;;6.70;5.80;;;;;;;;;;5035072;28;20408;-86
2021/03/25 07:34:39;;;;;;;9.23;5.70;;;;;;;;;;5063264;28;20413;-86
2021/03/25 07:37:06;;;;;;;6.70;6.00;;;;;;;;;;5034550;28;20791;-86
2021/03/25 07:39:38;;;;;;;6.90;5.10;;;;;;;;;;5016954;28;20490;-86
2021/03/25 07:42:04;;;;;;;7.22;5.90;;;;;;;;;;5035660;28;20398;-87
2021/03/25 07:44:35;;;;;;;7.05;5.38;;;;;;;;;;5046406;28;20486;-87
2021/03/25 07:47:02;;;;;;;5.80;5.15;;;;;;;;;;5036458;28;20416;-87
2021/03/25 07:49:28;;;;;;;7.53;5.85;;;;;;;;;;5019882;28;20437;-87
2021/03/25 07:52:00;;;;;;;10.20;6.00;;;;;;;;;;5038968;28;20459;-88
2021/03/25 07:54:32;;;;;;;10.35;5.53;;;;;;;;;;5019208;28;20496;-88
2021/03/25 07:57:03;;;;;;;8.85;7.07;;;;;;;;;;5031796;28;20395;-87
2021/03/25 07:59:29;;;;;;;11.48;5.45;;;;;;;;;;5045779;28;20409;-87
2021/03/25 08:01:55;;;;;;;6.10;5.50;;;;;;;;;;5019024;28;20405;-87
2021/03/25 08:04:25;;;;;;;6.30;5.75;;;;;;;;;;5016984;28;20463;-87
2021/03/25 08:07:00;;;;;;;5.80;5.22;;;;;;;;;;5018057;28;20800;-88
2021/03/25 08:09:26;;;;;;;5.85;5.10;;;;;;;;;;5034559;28;20756;-87
2021/03/25 08:11:53;;;;;;;8.82;5.88;;;;;;;;;;5035107;28;20390;-88
2021/03/25 08:14:19;;;;;;;6.15;5.13;;;;;;;;;;5048723;28;20415;-85
2021/03/25 08:16:45;;;;;;;5.03;4.57;;;;;;;;;;5063382;28;20412;-86
2021/03/25 08:19:26;;;;;;;7.93;5.13;;;;;;;;;;5016804;28;20897;-86
2021/03/25 08:22:11;;;;;;;6.13;5.55;;;;;;;;;;5030405;28;20945;-86
2021/03/25 08:24:43;;;;;;;7.23;5.33;;;;;;;;;;5050833;28;20434;-86
2021/03/25 08:27:32;;;;;;;5.83;5.33;;;;;;;;;;5033729;28;20761;-86
2021/03/25 08:30:18;;;;;;;6.43;5.30;;;;;;;;;;5015165;28;20420;-83
2021/03/25 08:32:56;;;;;;;5.65;4.97;;;;;;;;;;5030260;28;20722;-86
2021/03/25 08:35:33;;;;;;;9.13;5.55;;;;;;;;;;5018034;28;20389;-86
2021/03/25 08:38:18;;;;;;;5.85;5.35;;;;;;;;;;5018412;28;20406;-87
2021/03/25 08:40:50;;;;;;;7.75;6.10;;;;;;;;;;5034898;28;20440;-87
2021/03/25 08:43:24;;;;;;;5.22;4.70;;;;;;;;;;5033790;28;20460;-88
2021/03/25 08:46:09;;;;;;;6.45;4.60;;;;;;;;;;5018445;28;20450;-88
2021/03/25 08:48:38;;;;;;;4.63;4.23;;;;;;;;;;5017810;28;20405;-88
2021/03/25 08:51:10;;;;;;;4.63;3.95;;;;;;;;;;5017233;28;20915;-88
2021/03/25 08:53:45;;;;;;;5.00;4.60;;;;;;;;;;5052096;28;20397;-91
2021/03/25 08:56:30;;;;;;;6.05;4.80;;;;;;;;;;5011552;28;20415;-87
2021/03/25 08:58:57;;;;;;;5.30;4.83;;;;;;;;;;5022340;28;20438;-88
2021/03/25 09:01:27;;;;;;;4.72;4.32;;;;;;;;;;5029657;28;20916;-88
2021/03/25 09:03:57;;;;;;;5.57;4.28;;;;;;;;;;5049126;28;20404;-90
2021/03/25 09:06:24;;;;;;;5.37;4.57;;;;;;;;;;5017820;28;20424;-88
2021/03/25 09:08:51;;;;;;;6.72;4.60;;;;;;;;;;5034900;28;20439;-88
2021/03/25 09:11:17;;;;;;;5.93;4.78;;;;;;;;;;5013368;28;20411;-88
2021/03/25 09:13:44;;;;;;;5.68;4.88;;;;;;;;;;5015141;28;20493;-87
2021/03/25 09:16:13;;;;;;;4.85;4.35;;;;;;;;;;5021753;28;20405;-88
2021/03/25 09:18:40;;;;;;;5.35;4.32;;;;;;;;;;5015357;28;20478;-88
2021/03/25 09:21:33;;;;;;;4.93;4.47;;;;;;;;;;5047411;28;20437;-88
2021/03/25 09:24:02;;;;;;;6.03;4.68;;;;;;;;;;5023162;28;20432;-88
2021/03/25 09:26:28;;;;;;;6.30;4.55;;;;;;;;;;5032965;28;20401;-88
2021/03/25 09:29:00;;;;;;;6.07;4.68;;;;;;;;;;5033838;28;20911;-88
2021/03/25 09:31:27;;;;;;;4.78;4.15;;;;;;;;;;5047955;28;20392;-87
2021/03/25 09:33:56;;;;;;;6.57;5.63;;;;;;;;;;5039123;28;20907;-86
2021/03/25 09:36:34;;;;;;;5.53;5.03;;;;;;;;;;5036876;28;20428;-86
2021/03/25 09:39:01;;;;;;;6.63;5.13;;;;;;;;;;5053402;28;20376;-87
2021/03/25 09:41:28;;;;;;;5.95;5.30;;;;;;;;;;5034866;28;20455;-86
2021/03/25 09:43:54;;;;;;;6.78;5.85;;;;;;;;;;5051519;28;20408;-87
2021/03/25 09:46:27;;;;;;;9.57;6.70;;;;;;;;;;5041010;28;20761;-87
2021/03/25 09:48:55;;;;;;;8.65;7.00;;;;;;;;;;5033806;28;21003;-86
2021/03/25 09:51:29;;;;;;;9.10;7.68;;;;;;;;;;5017077;28;20390;-87
2021/03/25 09:53:58;;;;;;;8.82;7.78;;;;;;;;;;5036086;28;20408;-87
2021/03/25 09:56:28;;;;;;;9.27;7.20;;;;;;;;;;5032739;28;20409;-87
2021/03/25 09:58:54;;;;;;;12.13;8.33;;;;;;;;;;5033858;28;20800;-87
2021/03/25 10:01:38;;;;;;;11.63;8.52;;;;;;;;;;5028637;28;20444;-87
2021/03/25 10:04:24;;;;;;;10.30;8.30;;;;;;;;;;5033581;28;20401;-86
2021/03/25 10:06:56;;;;;;;11.80;8.68;;;;;;;;;;5033390;28;20496;-87
2021/03/25 10:09:41;;;;;;;11.65;8.65;;;;;;;;;;5034057;28;20523;-87
2021/03/25 10:12:11;;;;;;;11.52;8.55;;;;;;;;;;5060172;28;20398;-86
2021/03/25 10:14:51;;;;;;;10.57;8.23;;;;;;;;;;5037640;28;20409;-87
2021/03/25 10:17:44;;;;;;;12.70;8.32;;;;;;;;;;5014684;28;20908;-87
2021/03/25 10:20:11;;;;;;;10.50;8.85;;;;;;;;;;5041519;28;20449;-87
2021/03/25 10:22:37;;;;;;;11.93;9.43;;;;;;;;;;5045181;28;20427;-87
2021/03/25 10:25:06;;;;;;;12.88;10.38;;;;;;;;;;5014982;28;20435;-87
2021/03/25 10:27:33;;;;;;;12.90;9.70;;;;;;;;;;5033363;28;20384;-88
2021/03/25 10:30:03;;;;;;;13.18;9.02;;;;;;;;;;5020514;28;20465;-87
2021/03/25 10:32:31;;;;;;;11.25;8.65;;;;;;;;;;5020242;28;20397;-88
2021/03/25 10:34:59;;;;;;;11.35;9.35;;;;;;;;;;5037602;28;20500;-88
2021/03/25 10:37:54;;;;;;;13.00;9.43;;;;;;;;;;5037065;28;20397;-89
2021/03/25 10:40:22;;;;;;;13.88;9.80;;;;;;;;;;5037057;28;20409;-88
2021/03/25 10:42:56;;;;;;;14.13;9.27;;;;;;;;;;5054608;28;20429;-88
2021/03/25 10:45:31;;;;;;;12.68;10.38;;;;;;;;;;5036546;28;20943;-88
2021/03/25 10:47:58;;;;;;;11.57;10.10;;;;;;;;;;5029530;28;20428;-88
2021/03/25 10:50:39;;;;;;;12.83;9.60;;;;;;;;;;5032763;28;20735;-88
2021/03/25 10:53:06;;;;;;;11.38;9.60;;;;;;;;;;5016736;28;20631;-88
2021/03/25 10:55:39;;;;;;;12.85;10.07;;;;;;;;;;5046847;28;20426;-88
2021/03/25 10:58:06;;;;;;;15.90;9.80;;;;;;;;;;5036363;28;20423;-87
2021/03/25 11:00:32;;;;;;;13.45;11.10;;;;;;;;;;5020097;28;20467;-87
2021/03/25 11:03:03;;;;;;;10.75;9.70;;;;;;;;;;5053458;28;20393;-88
2021/03/25 11:05:30;;;;;;;13.18;10.38;;;;;;;;;;5017603;28;20406;-88
2021/03/25 11:07:57;;;;;;;10.55;9.00;;;;;;;;;;5031502;28;20413;-88
2021/03/25 11:10:24;;;;;;;11.93;9.63;;;;;;;;;;5036087;28;20405;-88
2021/03/25 11:13:01;;;;;;;13.10;10.13;;;;;;;;;;5015689;28;20410;-88
2021/03/25 11:15:27;;;;;;;12.15;9.43;;;;;;;;;;5041955;28;20424;-88
2021/03/25 11:17:53;;;;;;;11.02;9.60;;;;;;;;;;5038364;28;20402;-88
2021/03/25 11:20:20;;;;;;;14.73;9.93;;;;;;;;;;5036561;28;20451;-88
2021/03/25 11:22:46;;;;;;;12.73;10.82;;;;;;;;;;5035728;28;20443;-88
2021/03/25 11:25:14;;;;;;;12.27;10.00;;;;;;;;;;5035507;28;20909;-87
2021/03/25 11:27:40;;;;;;;14.15;10.13;;;;;;;;;;5019631;28;20389;-88
2021/03/25 11:30:15;;;;;;;12.30;9.63;;;;;;;;;;5035827;28;20401;-87
2021/03/25 11:32:47;;;;;;;13.38;9.80;;;;;;;;;;5043943;28;20394;-87
2021/03/25 11:35:21;;;;;;;16.52;10.93;;;;;;;;;;5052572;28;20508;-87
2021/03/25 11:37:47;;;;;;;11.68;9.85;;;;;;;;;;5034371;28;20468;-89
2021/03/25 11:40:13;;;;;;;13.75;10.23;;;;;;;;;;5022831;28;20485;-88
2021/03/25 11:42:44;;;;;;;12.77;10.55;;;;;;;;;;5015952;28;20771;-88
2021/03/25 11:45:29;;;;;;;13.85;10.52;;;;;;;;;;5033841;28;20416;-88
2021/03/25 11:47:55;;;;;;;14.03;11.17;;;;;;;;;;5059032;28;20453;-88
2021/03/25 11:50:24;;;;;;;16.05;10.80;;;;;;;;;;5018892;28;20794;-89
2021/03/25 11:52:54;;;;;;;13.70;10.85;;;;;;;;;;5051126;28;20907;-89
2021/03/25 11:55:21;;;;;;;13.13;11.00;;;;;;;;;;5018884;28;20417;-88
2021/03/25 11:57:47;;;;;;;14.30;10.95;;;;;;;;;;5045952;28;20751;-88
2021/03/25 12:00:13;;;;;;;14.77;10.30;;;;;;;;;;5034516;28;20413;-88
2021/03/25 12:02:40;;;;;;;14.60;11.73;;;;;;;;;;5071078;28;20387;-88
2021/03/25 12:05:25;;;;;;;14.43;11.77;;;;;;;;;;5018120;28;20409;-87
2021/03/25 12:08:06;;;;;;;14.13;11.38;;;;;;;;;;5029447;28;20401;-87
2021/03/25 12:10:32;;;;;;;15.25;11.35;;;;;;;;;;5038044;28;20459;-87
2021/03/25 12:12:58;;;;;;;15.10;11.70;;;;;;;;;;5018183;28;20413;-89
2021/03/25 12:15:24;;;;;;;11.30;9.73;;;;;;;;;;5034523;28;20496;-88
2021/03/25 12:17:54;;;;;;;24.92;11.95;;;;;;;;;;5035205;28;20386;-88
2021/03/25 12:20:22;;;;;;;15.85;12.30;;;;;;;;;;5035287;28;20904;-88
2021/03/25 12:22:48;;;;;;;13.43;11.40;;;;;;;;;;5016424;28;20425;-87
2021/03/25 12:25:15;;;;;;;14.93;11.60;;;;;;;;;;5040670;28;20402;-88
2021/03/25 12:27:41;;;;;;;15.32;11.75;;;;;;;;;;5021713;28;20757;-88
2021/03/25 12:30:10;;;;;;;15.32;11.82;;;;;;;;;;5022543;28;20531;-88
2021/03/25 12:32:39;;;;;;;17.83;13.63;;;;;;;;;;5035362;28;20401;-92
2021/03/25 12:35:06;;;;;;;15.52;11.90;;;;;;;;;;5014730;28;20415;-87
2021/03/25 12:37:32;;;;;;;17.52;12.95;;;;;;;;;;5039572;28;20389;-88
2021/03/25 12:40:01;;;;;;;18.73;12.98;;;;;;;;;;5052923;28;20403;-89
2021/03/25 12:42:27;;;;;;;15.87;13.00;;;;;;;;;;5018664;28;20788;-89
2021/03/25 12:44:56;;;;;;;14.38;12.10;;;;;;;;;;5034215;28;20402;-89
2021/03/25 12:47:22;;;;;;;12.30;10.73;;;;;;;;;;5034593;28;20385;-87
2021/03/25 12:49:48;;;;;;;15.27;10.87;;;;;;;;;;5017581;28;20416;-88
2021/03/25 12:52:17;;;;;;;13.30;10.30;;;;;;;;;;5032810;28;20441;-88
2021/03/25 12:54:43;;;;;;;15.07;10.00;;;;;;;;;;5015987;28;20502;-88
2021/03/25 12:57:09;;;;;;;14.00;10.57;;;;;;;;;;5034203;28;20493;-88
2021/03/25 12:59:35;;;;;;;13.98;10.40;;;;;;;;;;5017100;28;20423;-87
2021/03/25 13:02:01;;;;;;;13.35;10.13;;;;;;;;;;5018746;28;20493;-90
2021/03/25 13:04:27;;;;;;;15.13;11.00;;;;;;;;;;5042008;28;20397;-89
2021/03/25 13:06:53;;;;;;;12.57;10.43;;;;;;;;;;5004195;28;20419;-88
2021/03/25 13:09:19;;;;;;;12.23;9.53;;;;;;;;;;5047416;28;20423;-88
2021/03/25 13:11:45;;;;;;;15.13;10.90;;;;;;;;;;5034087;28;20435;-91
2021/03/25 13:14:11;;;;;;;11.10;9.60;;;;;;;;;;5012085;28;20910;-88
2021/03/25 13:16:38;;;;;;;10.32;9.07;;;;;;;;;;5005357;28;21074;-88
2021/03/25 13:19:06;;;;;;;11.17;8.63;;;;;;;;;;5045746;28;20391;-88
2021/03/25 13:21:32;;;;;;;12.20;9.45;;;;;;;;;;5011878;28;20454;-89
2021/03/25 13:24:01;;;;;;;12.88;10.23;;;;;;;;;;5028174;28;20904;-90
2021/03/25 13:26:27;;;;;;;10.70;8.50;;;;;;;;;;5016655;28;20900;-89
2021/03/25 13:28:55;;;;;;;9.77;8.77;;;;;;;;;;5018116;28;20479;-90
2021/03/25 13:31:21;;;;;;;12.18;8.75;;;;;;;;;;5018369;28;20798;-89
2021/03/25 13:33:47;;;;;;;11.30;8.70;;;;;;;;;;5015860;28;20386;-89
2021/03/25 13:36:13;;;;;;;13.75;8.68;;;;;;;;;;5016703;28;20445;-90
2021/03/25 13:38:39;;;;;;;9.95;8.65;;;;;;;;;;5028322;28;20472;-91
2021/03/25 13:41:06;;;;;;;9.23;7.63;;;;;;;;;;5006267;28;20403;-89
2021/03/25 13:43:32;;;;;;;11.05;7.93;;;;;;;;;;5047063;28;20488;-88
2021/03/25 13:45:59;;;;;;;14.60;9.35;;;;;;;;;;5033436;28;20393;-88
2021/03/25 13:48:25;;;;;;;16.58;10.43;;;;;;;;;;5033091;28;20405;-88
2021/03/25 13:50:54;;;;;;;10.45;8.60;;;;;;;;;;5050748;28;20763;-87
2021/03/25 13:53:20;;;;;;;10.10;8.02;;;;;;;;;;5033390;28;20390;-89
2021/03/25 13:55:46;;;;;;;11.10;8.00;;;;;;;;;;5013821;28;20417;-87
2021/03/25 13:58:14;;;;;;;10.90;7.75;;;;;;;;;;5016813;28;20395;-87
2021/03/25 14:00:40;;;;;;;9.63;8.57;;;;;;;;;;5040110;28;20401;-89
2021/03/25 14:03:06;;;;;;;10.93;8.40;;;;;;;;;;5037110;28;20405;-88
2021/03/25 14:05:32;;;;;;;12.50;9.63;;;;;;;;;;5055093;28;20472;-88
2021/03/25 14:07:59;;;;;;;12.63;9.30;;;;;;;;;;5055482;28;20397;-88
2021/03/25 14:10:25;;;;;;;13.03;8.93;;;;;;;;;;5034815;28;20427;-88
2021/03/25 14:12:52;;;;;;;12.77;9.38;;;;;;;;;;5017212;28;20411;-88
2021/03/25 14:15:25;;;;;;;10.80;9.10;;;;;;;;;;5017771;28;20415;-88
2021/03/25 14:17:52;;;;;;;13.80;8.93;;;;;;;;;;5018412;28;20406;-88
2021/03/25 14:20:18;;;;;;;13.13;9.65;;;;;;;;;;5020842;28;20405;-88
2021/03/25 14:22:46;;;;;;;9.85;8.27;;;;;;;;;;5018130;28;20893;-88
2021/03/25 14:25:29;;;;;;;14.18;9.98;;;;;;;;;;5036983;28;20484;-86
2021/03/25 14:27:55;;;;;;;12.73;9.40;;;;;;;;;;5036639;28;20388;-88
2021/03/25 14:30:28;;;;;;;12.97;9.47;;;;;;;;;;5020838;28;20866;-88
2021/03/25 14:32:56;;;;;;;12.00;8.93;;;;;;;;;;5020650;28;20804;-88
2021/03/25 14:35:23;;;;;;;12.63;9.02;;;;;;;;;;5019272;28;20432;-87
2021/03/25 14:37:49;;;;;;;16.40;10.43;;;;;;;;;;5036949;28;20377;-88
2021/03/25 14:40:17;;;;;;;14.65;9.70;;;;;;;;;;5036837;28;20552;-88
2021/03/25 14:42:43;;;;;;;13.30;8.68;;;;;;;;;;5020507;28;20455;-89
2021/03/25 14:45:10;;;;;;;13.05;8.25;;;;;;;;;;5035973;28;20417;-88
2021/03/25 14:47:36;;;;;;;14.27;8.40;;;;;;;;;;5019672;28;20412;-88
2021/03/25 14:50:02;;;;;;;14.98;8.23;;;;;;;;;;5032986;28;20411;-88
2021/03/25 14:52:31;;;;;;;11.17;7.20;;;;;;;;;;5033145;28;20453;-88